sensor_id;sensor_type;location;lat;lon;timestamp;temperature;humidity
37678;DHT22;23517;50.390;8.616;2023-08-30T00:01:04;12.20;75.50
37678;DHT22;23517;50.390;8.616;2023-08-30T00:03:31;12.20;75.10
37678;DHT22;23517;50.390;8.616;2023-08-30T00:06:05;12.30;75.00
37678;DHT22;23517;50.390;8.616;2023-08-30T00:08:33;12.30;75.20
37678;DHT22;23517;50.390;8.616;2023-08-30T00:11:00;12.20;74.50
37678;DHT22;23517;50.390;8.616;2023-08-30T00:13:30;12.20;74.10
37678;DHT22;23517;50.390;8.616;2023-08-30T00:15:59;12.20;74.40
37678;DHT22;23517;50.390;8.616;2023-08-30T00:18:26;12.20;74.70
37678;DHT22;23517;50.390;8.616;2023-08-30T00:20:54;12.20;74.40
37678;DHT22;23517;50.390;8.616;2023-08-30T00:23:21;12.20;75.20
37678;DHT22;23517;50.390;8.616;2023-08-30T00:25:48;12.20;75.20
37678;DHT22;23517;50.390;8.616;2023-08-30T00:28:15;12.20;75.70
37678;DHT22;23517;50.390;8.616;2023-08-30T00:30:41;12.20;75.30
37678;DHT22;23517;50.390;8.616;2023-08-30T00:33:08;12.20;75.00
37678;DHT22;23517;50.390;8.616;2023-08-30T00:35:35;12.20;76.40
37678;DHT22;23517;50.390;8.616;2023-08-30T00:38:02;12.20;77.00
37678;DHT22;23517;50.390;8.616;2023-08-30T00:40:38;12.30;77.80
37678;DHT22;23517;50.390;8.616;2023-08-30T00:43:07;12.20;77.40
37678;DHT22;23517;50.390;8.616;2023-08-30T00:45:34;12.30;77.30
37678;DHT22;23517;50.390;8.616;2023-08-30T00:48:05;12.20;78.00
37678;DHT22;23517;50.390;8.616;2023-08-30T00:50:33;12.20;78.50
37678;DHT22;23517;50.390;8.616;2023-08-30T00:53:00;12.30;78.90
37678;DHT22;23517;50.390;8.616;2023-08-30T00:55:35;12.20;79.10
37678;DHT22;23517;50.390;8.616;2023-08-30T00:58:03;12.30;79.30
37678;DHT22;23517;50.390;8.616;2023-08-30T01:00:31;12.30;79.10
37678;DHT22;23517;50.390;8.616;2023-08-30T01:02:58;12.30;78.60
37678;DHT22;23517;50.390;8.616;2023-08-30T01:05:25;12.30;79.10
37678;DHT22;23517;50.390;8.616;2023-08-30T01:07:52;12.30;79.60
37678;DHT22;23517;50.390;8.616;2023-08-30T01:10:22;12.30;79.80
37678;DHT22;23517;50.390;8.616;2023-08-30T01:13:09;12.40;80.20
37678;DHT22;23517;50.390;8.616;2023-08-30T01:15:38;12.40;80.40
37678;DHT22;23517;50.390;8.616;2023-08-30T01:18:07;12.40;81.00
37678;DHT22;23517;50.390;8.616;2023-08-30T01:20:38;12.50;81.20
37678;DHT22;23517;50.390;8.616;2023-08-30T01:23:24;12.40;80.80
37678;DHT22;23517;50.390;8.616;2023-08-30T01:26:14;12.40;80.90
37678;DHT22;23517;50.390;8.616;2023-08-30T01:28:48;12.40;81.20
37678;DHT22;23517;50.390;8.616;2023-08-30T01:31:15;12.50;81.00
37678;DHT22;23517;50.390;8.616;2023-08-30T01:33:43;12.50;81.10
37678;DHT22;23517;50.390;8.616;2023-08-30T01:36:10;12.40;80.80
37678;DHT22;23517;50.390;8.616;2023-08-30T01:38:37;12.50;80.80
37678;DHT22;23517;50.390;8.616;2023-08-30T01:41:04;12.50;80.00
37678;DHT22;23517;50.390;8.616;2023-08-30T01:43:31;12.40;80.50
37678;DHT22;23517;50.390;8.616;2023-08-30T01:45:59;12.40;80.60
37678;DHT22;23517;50.390;8.616;2023-08-30T01:48:27;12.40;81.20
37678;DHT22;23517;50.390;8.616;2023-08-30T01:50:55;12.40;82.20
37678;DHT22;23517;50.390;8.616;2023-08-30T01:53:25;12.40;82.10
37678;DHT22;23517;50.390;8.616;2023-08-30T01:55:53;12.50;81.90
37678;DHT22;23517;50.390;8.616;2023-08-30T01:58:19;12.50;81.60
37678;DHT22;23517;50.390;8.616;2023-08-30T02:00:46;12.50;81.80
37678;DHT22;23517;50.390;8.616;2023-08-30T02:03:14;12.50;81.80
37678;DHT22;23517;50.390;8.616;2023-08-30T02:08:47;12.60;81.70
37678;DHT22;23517;50.390;8.616;2023-08-30T02:11:27;12.70;80.80
37678;DHT22;23517;50.390;8.616;2023-08-30T02:13:57;12.70;79.90
37678;DHT22;23517;50.390;8.616;2023-08-30T02:16:26;12.60;79.90
37678;DHT22;23517;50.390;8.616;2023-08-30T02:18:55;12.60;79.30
37678;DHT22;23517;50.390;8.616;2023-08-30T02:21:21;12.50;80.00
37678;DHT22;23517;50.390;8.616;2023-08-30T02:23:51;12.60;80.20
37678;DHT22;23517;50.390;8.616;2023-08-30T02:26:19;12.50;80.20
37678;DHT22;23517;50.390;8.616;2023-08-30T02:28:46;12.50;81.20
37678;DHT22;23517;50.390;8.616;2023-08-30T02:31:13;12.50;81.70
37678;DHT22;23517;50.390;8.616;2023-08-30T02:33:40;12.50;81.70
37678;DHT22;23517;50.390;8.616;2023-08-30T02:36:07;12.50;81.80
37678;DHT22;23517;50.390;8.616;2023-08-30T02:38:34;12.50;81.90
37678;DHT22;23517;50.390;8.616;2023-08-30T02:41:01;12.50;82.30
37678;DHT22;23517;50.390;8.616;2023-08-30T02:43:28;12.50;82.40
37678;DHT22;23517;50.390;8.616;2023-08-30T02:45:55;12.50;82.40
37678;DHT22;23517;50.390;8.616;2023-08-30T02:48:22;12.60;81.90
37678;DHT22;23517;50.390;8.616;2023-08-30T02:50:49;12.60;81.20
37678;DHT22;23517;50.390;8.616;2023-08-30T02:53:16;12.50;82.00
37678;DHT22;23517;50.390;8.616;2023-08-30T02:55:42;12.50;82.80
37678;DHT22;23517;50.390;8.616;2023-08-30T02:58:09;12.50;83.10
37678;DHT22;23517;50.390;8.616;2023-08-30T03:00:36;12.50;82.80
37678;DHT22;23517;50.390;8.616;2023-08-30T03:03:03;12.60;82.20
37678;DHT22;23517;50.390;8.616;2023-08-30T03:05:30;12.60;82.30
37678;DHT22;23517;50.390;8.616;2023-08-30T03:07:57;12.50;82.70
37678;DHT22;23517;50.390;8.616;2023-08-30T03:10:24;12.50;83.10
37678;DHT22;23517;50.390;8.616;2023-08-30T03:12:50;12.50;83.40
37678;DHT22;23517;50.390;8.616;2023-08-30T03:15:18;12.60;83.40
37678;DHT22;23517;50.390;8.616;2023-08-30T03:17:44;12.60;82.50
37678;DHT22;23517;50.390;8.616;2023-08-30T03:20:11;12.60;82.50
37678;DHT22;23517;50.390;8.616;2023-08-30T03:22:38;12.60;82.90
37678;DHT22;23517;50.390;8.616;2023-08-30T03:25:06;12.60;82.40
37678;DHT22;23517;50.390;8.616;2023-08-30T03:27:33;12.60;83.20
37678;DHT22;23517;50.390;8.616;2023-08-30T03:29:59;12.60;83.20
37678;DHT22;23517;50.390;8.616;2023-08-30T03:32:27;12.60;83.20
37678;DHT22;23517;50.390;8.616;2023-08-30T03:34:54;12.60;83.60
37678;DHT22;23517;50.390;8.616;2023-08-30T03:37:21;12.60;84.00
37678;DHT22;23517;50.390;8.616;2023-08-30T03:39:47;12.60;83.50
37678;DHT22;23517;50.390;8.616;2023-08-30T03:42:14;12.60;83.20
37678;DHT22;23517;50.390;8.616;2023-08-30T03:44:41;12.60;83.60
37678;DHT22;23517;50.390;8.616;2023-08-30T03:47:08;12.60;83.60
37678;DHT22;23517;50.390;8.616;2023-08-30T03:49:35;12.50;84.20
37678;DHT22;23517;50.390;8.616;2023-08-30T03:52:03;12.50;84.20
37678;DHT22;23517;50.390;8.616;2023-08-30T03:54:30;12.60;84.20
37678;DHT22;23517;50.390;8.616;2023-08-30T03:56:56;12.60;84.10
37678;DHT22;23517;50.390;8.616;2023-08-30T03:59:23;12.60;84.20
37678;DHT22;23517;50.390;8.616;2023-08-30T04:01:53;12.60;84.20
37678;DHT22;23517;50.390;8.616;2023-08-30T04:04:20;12.50;84.20
37678;DHT22;23517;50.390;8.616;2023-08-30T04:06:47;12.50;84.60
37678;DHT22;23517;50.390;8.616;2023-08-30T04:09:14;12.60;84.80
37678;DHT22;23517;50.390;8.616;2023-08-30T04:11:40;12.60;83.70
37678;DHT22;23517;50.390;8.616;2023-08-30T04:14:08;12.60;83.70
37678;DHT22;23517;50.390;8.616;2023-08-30T04:16:35;12.60;84.20
37678;DHT22;23517;50.390;8.616;2023-08-30T04:19:02;12.60;83.60
37678;DHT22;23517;50.390;8.616;2023-08-30T04:21:28;12.60;84.20
37678;DHT22;23517;50.390;8.616;2023-08-30T04:23:55;12.60;84.20
37678;DHT22;23517;50.390;8.616;2023-08-30T04:26:21;12.60;84.20
37678;DHT22;23517;50.390;8.616;2023-08-30T04:28:48;12.50;84.20
37678;DHT22;23517;50.390;8.616;2023-08-30T04:31:15;12.50;84.60
37678;DHT22;23517;50.390;8.616;2023-08-30T04:33:42;12.50;85.00
37678;DHT22;23517;50.390;8.616;2023-08-30T04:36:08;12.60;85.10
37678;DHT22;23517;50.390;8.616;2023-08-30T04:38:35;12.50;84.80
37678;DHT22;23517;50.390;8.616;2023-08-30T04:41:18;12.60;85.00
37678;DHT22;23517;50.390;8.616;2023-08-30T04:43:45;12.60;84.60
37678;DHT22;23517;50.390;8.616;2023-08-30T04:46:11;12.70;84.30
37678;DHT22;23517;50.390;8.616;2023-08-30T04:48:38;12.70;84.30
37678;DHT22;23517;50.390;8.616;2023-08-30T04:51:05;12.70;83.70
37678;DHT22;23517;50.390;8.616;2023-08-30T04:53:31;12.60;83.40
37678;DHT22;23517;50.390;8.616;2023-08-30T04:55:59;12.60;83.40
37678;DHT22;23517;50.390;8.616;2023-08-30T04:58:25;12.70;83.60
37678;DHT22;23517;50.390;8.616;2023-08-30T05:00:55;12.70;83.40
37678;DHT22;23517;50.390;8.616;2023-08-30T05:03:22;12.60;83.10
37678;DHT22;23517;50.390;8.616;2023-08-30T05:05:49;12.60;83.50
37678;DHT22;23517;50.390;8.616;2023-08-30T05:08:16;12.60;83.20
37678;DHT22;23517;50.390;8.616;2023-08-30T05:10:42;12.60;83.80
37678;DHT22;23517;50.390;8.616;2023-08-30T05:13:09;12.50;84.20
37678;DHT22;23517;50.390;8.616;2023-08-30T05:15:36;12.60;83.90
37678;DHT22;23517;50.390;8.616;2023-08-30T05:18:04;12.60;83.10
37678;DHT22;23517;50.390;8.616;2023-08-30T05:20:31;12.60;82.90
37678;DHT22;23517;50.390;8.616;2023-08-30T05:22:58;12.70;83.10
37678;DHT22;23517;50.390;8.616;2023-08-30T05:25:25;12.70;82.50
37678;DHT22;23517;50.390;8.616;2023-08-30T05:27:52;12.80;82.00
37678;DHT22;23517;50.390;8.616;2023-08-30T05:30:29;12.80;82.10
37678;DHT22;23517;50.390;8.616;2023-08-30T05:32:55;12.90;81.90
37678;DHT22;23517;50.390;8.616;2023-08-30T05:35:22;13.00;80.80
37678;DHT22;23517;50.390;8.616;2023-08-30T05:37:49;13.10;80.10
37678;DHT22;23517;50.390;8.616;2023-08-30T05:40:17;13.10;79.70
37678;DHT22;23517;50.390;8.616;2023-08-30T05:42:44;13.20;78.90
37678;DHT22;23517;50.390;8.616;2023-08-30T05:45:11;13.30;77.50
37678;DHT22;23517;50.390;8.616;2023-08-30T05:47:38;13.20;77.80
37678;DHT22;23517;50.390;8.616;2023-08-30T05:50:05;13.20;78.40
37678;DHT22;23517;50.390;8.616;2023-08-30T05:52:32;13.20;77.70
37678;DHT22;23517;50.390;8.616;2023-08-30T05:54:59;13.30;78.50
37678;DHT22;23517;50.390;8.616;2023-08-30T05:57:26;13.40;78.50
37678;DHT22;23517;50.390;8.616;2023-08-30T05:59:55;13.50;76.90
37678;DHT22;23517;50.390;8.616;2023-08-30T06:02:22;13.60;75.10
37678;DHT22;23517;50.390;8.616;2023-08-30T06:04:49;13.70;75.70
37678;DHT22;23517;50.390;8.616;2023-08-30T06:07:15;13.80;73.90
37678;DHT22;23517;50.390;8.616;2023-08-30T06:09:42;13.80;73.80
37678;DHT22;23517;50.390;8.616;2023-08-30T06:12:09;13.90;72.60
37678;DHT22;23517;50.390;8.616;2023-08-30T06:14:36;13.80;72.50
37678;DHT22;23517;50.390;8.616;2023-08-30T06:17:03;13.80;73.00
37678;DHT22;23517;50.390;8.616;2023-08-30T06:19:30;13.90;73.50
37678;DHT22;23517;50.390;8.616;2023-08-30T06:21:56;14.00;72.70
37678;DHT22;23517;50.390;8.616;2023-08-30T06:24:23;14.10;72.80
37678;DHT22;23517;50.390;8.616;2023-08-30T06:26:50;14.00;72.40
37678;DHT22;23517;50.390;8.616;2023-08-30T06:29:16;14.20;70.20
37678;DHT22;23517;50.390;8.616;2023-08-30T06:31:43;14.10;69.50
37678;DHT22;23517;50.390;8.616;2023-08-30T06:34:14;14.10;71.20
37678;DHT22;23517;50.390;8.616;2023-08-30T06:36:40;14.30;68.60
37678;DHT22;23517;50.390;8.616;2023-08-30T06:39:07;14.40;68.60
37678;DHT22;23517;50.390;8.616;2023-08-30T06:41:34;14.60;65.80
37678;DHT22;23517;50.390;8.616;2023-08-30T06:44:04;14.80;65.00
37678;DHT22;23517;50.390;8.616;2023-08-30T06:46:31;14.90;63.60
37678;DHT22;23517;50.390;8.616;2023-08-30T06:48:57;14.90;63.60
37678;DHT22;23517;50.390;8.616;2023-08-30T06:51:24;15.00;63.30
37678;DHT22;23517;50.390;8.616;2023-08-30T06:53:51;15.20;62.00
37678;DHT22;23517;50.390;8.616;2023-08-30T06:56:18;15.60;59.20
37678;DHT22;23517;50.390;8.616;2023-08-30T07:01:11;16.20;55.30
37678;DHT22;23517;50.390;8.616;2023-08-30T07:03:38;16.60;55.40
37678;DHT22;23517;50.390;8.616;2023-08-30T07:06:06;17.20;52.70
37678;DHT22;23517;50.390;8.616;2023-08-30T07:08:33;17.70;47.30
37678;DHT22;23517;50.390;8.616;2023-08-30T07:11:00;18.20;45.10
37678;DHT22;23517;50.390;8.616;2023-08-30T07:13:26;18.80;40.90
37678;DHT22;23517;50.390;8.616;2023-08-30T07:15:53;19.30;39.40
37678;DHT22;23517;50.390;8.616;2023-08-30T07:18:23;20.00;38.70
37678;DHT22;23517;50.390;8.616;2023-08-30T07:20:50;20.80;35.10
37678;DHT22;23517;50.390;8.616;2023-08-30T07:23:17;21.20;34.90
37678;DHT22;23517;50.390;8.616;2023-08-30T07:25:43;21.50;33.10
37678;DHT22;23517;50.390;8.616;2023-08-30T07:28:13;21.80;31.40
37678;DHT22;23517;50.390;8.616;2023-08-30T07:30:41;21.60;31.50
37678;DHT22;23517;50.390;8.616;2023-08-30T07:33:08;21.10;33.30
37678;DHT22;23517;50.390;8.616;2023-08-30T07:35:35;21.20;33.40
37678;DHT22;23517;50.390;8.616;2023-08-30T07:38:02;21.40;33.00
37678;DHT22;23517;50.390;8.616;2023-08-30T07:40:29;21.50;33.50
37678;DHT22;23517;50.390;8.616;2023-08-30T07:42:56;21.40;32.60
37678;DHT22;23517;50.390;8.616;2023-08-30T07:45:25;21.50;33.40
37678;DHT22;23517;50.390;8.616;2023-08-30T07:47:52;21.40;33.30
37678;DHT22;23517;50.390;8.616;2023-08-30T07:50:19;21.20;33.70
37678;DHT22;23517;50.390;8.616;2023-08-30T07:52:46;21.30;33.50
37678;DHT22;23517;50.390;8.616;2023-08-30T07:55:13;20.70;35.20
37678;DHT22;23517;50.390;8.616;2023-08-30T07:57:40;21.00;35.40
37678;DHT22;23517;50.390;8.616;2023-08-30T08:00:07;21.40;33.70
37678;DHT22;23517;50.390;8.616;2023-08-30T08:02:35;21.60;32.70
37678;DHT22;23517;50.390;8.616;2023-08-30T08:05:01;21.90;32.70
37678;DHT22;23517;50.390;8.616;2023-08-30T08:07:28;22.60;30.40
37678;DHT22;23517;50.390;8.616;2023-08-30T08:09:56;22.70;30.60
37678;DHT22;23517;50.390;8.616;2023-08-30T08:12:24;22.50;30.50
37678;DHT22;23517;50.390;8.616;2023-08-30T08:14:51;22.90;29.50
37678;DHT22;23517;50.390;8.616;2023-08-30T08:17:18;23.00;29.00
37678;DHT22;23517;50.390;8.616;2023-08-30T08:19:44;22.90;29.00
37678;DHT22;23517;50.390;8.616;2023-08-30T08:22:11;22.70;29.90
37678;DHT22;23517;50.390;8.616;2023-08-30T08:24:38;22.50;30.50
37678;DHT22;23517;50.390;8.616;2023-08-30T08:27:06;22.50;30.50
37678;DHT22;23517;50.390;8.616;2023-08-30T08:29:33;22.40;30.60
37678;DHT22;23517;50.390;8.616;2023-08-30T08:31:59;22.20;30.80
37678;DHT22;23517;50.390;8.616;2023-08-30T08:34:26;21.70;32.80
37678;DHT22;23517;50.390;8.616;2023-08-30T08:36:53;21.40;33.60
37678;DHT22;23517;50.390;8.616;2023-08-30T08:39:20;20.80;35.20
37678;DHT22;23517;50.390;8.616;2023-08-30T08:41:46;20.40;36.60
37678;DHT22;23517;50.390;8.616;2023-08-30T08:44:13;20.20;37.20
37678;DHT22;23517;50.390;8.616;2023-08-30T08:46:41;20.30;37.60
37678;DHT22;23517;50.390;8.616;2023-08-30T08:51:43;21.50;35.20
37678;DHT22;23517;50.390;8.616;2023-08-30T08:54:12;22.20;33.50
37678;DHT22;23517;50.390;8.616;2023-08-30T08:56:40;22.50;31.70
37678;DHT22;23517;50.390;8.616;2023-08-30T08:59:07;23.00;31.10
37678;DHT22;23517;50.390;8.616;2023-08-30T09:01:35;23.60;30.20
37678;DHT22;23517;50.390;8.616;2023-08-30T09:04:06;24.10;28.70
37678;DHT22;23517;50.390;8.616;2023-08-30T09:06:35;24.30;25.50
37678;DHT22;23517;50.390;8.616;2023-08-30T09:09:12;24.70;25.90
37678;DHT22;23517;50.390;8.616;2023-08-30T09:11:39;25.10;24.10
37678;DHT22;23517;50.390;8.616;2023-08-30T09:14:17;25.20;24.30
37678;DHT22;23517;50.390;8.616;2023-08-30T09:17:01;25.20;23.60
37678;DHT22;23517;50.390;8.616;2023-08-30T09:19:29;24.90;23.90
37678;DHT22;23517;50.390;8.616;2023-08-30T09:21:58;25.40;23.40
37678;DHT22;23517;50.390;8.616;2023-08-30T09:24:25;26.20;22.80
37678;DHT22;23517;50.390;8.616;2023-08-30T09:26:54;26.80;20.70
37678;DHT22;23517;50.390;8.616;2023-08-30T09:29:21;27.00;20.80
37678;DHT22;23517;50.390;8.616;2023-08-30T09:31:53;26.50;20.90
37678;DHT22;23517;50.390;8.616;2023-08-30T09:34:25;26.90;20.30
37678;DHT22;23517;50.390;8.616;2023-08-30T09:36:53;27.70;19.60
37678;DHT22;23517;50.390;8.616;2023-08-30T09:39:21;28.20;18.50
37678;DHT22;23517;50.390;8.616;2023-08-30T09:41:48;28.10;17.90
37678;DHT22;23517;50.390;8.616;2023-08-30T09:44:20;27.80;18.30
37678;DHT22;23517;50.390;8.616;2023-08-30T09:46:52;27.20;19.70
37678;DHT22;23517;50.390;8.616;2023-08-30T09:49:24;27.20;19.50
37678;DHT22;23517;50.390;8.616;2023-08-30T09:51:53;26.60;19.40
37678;DHT22;23517;50.390;8.616;2023-08-30T09:54:22;26.50;20.50
37678;DHT22;23517;50.390;8.616;2023-08-30T09:56:54;25.60;20.20
37678;DHT22;23517;50.390;8.616;2023-08-30T09:59:23;25.00;22.20
37678;DHT22;23517;50.390;8.616;2023-08-30T10:01:51;24.20;20.90
37678;DHT22;23517;50.390;8.616;2023-08-30T10:04:20;23.30;23.40
37678;DHT22;23517;50.390;8.616;2023-08-30T10:06:47;23.00;25.20
37678;DHT22;23517;50.390;8.616;2023-08-30T10:09:15;22.70;23.70
37678;DHT22;23517;50.390;8.616;2023-08-30T10:11:46;22.30;25.10
37678;DHT22;23517;50.390;8.616;2023-08-30T10:14:13;22.00;26.70
37678;DHT22;23517;50.390;8.616;2023-08-30T10:16:45;21.90;27.70
37678;DHT22;23517;50.390;8.616;2023-08-30T10:19:25;21.80;26.30
37678;DHT22;23517;50.390;8.616;2023-08-30T10:22:06;21.60;25.90
37678;DHT22;23517;50.390;8.616;2023-08-30T10:24:44;21.60;23.90
37678;DHT22;23517;50.390;8.616;2023-08-30T10:27:30;21.70;24.60
37678;DHT22;23517;50.390;8.616;2023-08-30T10:30:02;21.40;24.70
37678;DHT22;23517;50.390;8.616;2023-08-30T10:32:31;21.10;24.20
37678;DHT22;23517;50.390;8.616;2023-08-30T10:35:01;21.00;24.30
37678;DHT22;23517;50.390;8.616;2023-08-30T10:37:30;21.00;24.50
37678;DHT22;23517;50.390;8.616;2023-08-30T10:40:00;21.00;24.20
37678;DHT22;23517;50.390;8.616;2023-08-30T10:42:30;21.10;24.90
37678;DHT22;23517;50.390;8.616;2023-08-30T10:44:59;21.40;24.30
37678;DHT22;23517;50.390;8.616;2023-08-30T10:47:31;21.50;24.80
37678;DHT22;23517;50.390;8.616;2023-08-30T10:50:08;21.70;24.60
37678;DHT22;23517;50.390;8.616;2023-08-30T10:52:36;21.90;24.60
37678;DHT22;23517;50.390;8.616;2023-08-30T10:55:14;21.80;23.90
37678;DHT22;23517;50.390;8.616;2023-08-30T10:57:43;21.80;23.80
37678;DHT22;23517;50.390;8.616;2023-08-30T11:02:46;21.90;21.80
37678;DHT22;23517;50.390;8.616;2023-08-30T11:05:25;22.10;22.20
37678;DHT22;23517;50.390;8.616;2023-08-30T11:07:53;22.20;21.80
37678;DHT22;23517;50.390;8.616;2023-08-30T11:10:20;22.30;21.70
37678;DHT22;23517;50.390;8.616;2023-08-30T11:12:48;22.50;21.90
37678;DHT22;23517;50.390;8.616;2023-08-30T11:15:16;22.50;20.50
37678;DHT22;23517;50.390;8.616;2023-08-30T11:17:43;22.40;21.30
37678;DHT22;23517;50.390;8.616;2023-08-30T11:20:12;22.40;20.80
37678;DHT22;23517;50.390;8.616;2023-08-30T11:22:46;22.20;20.70
37678;DHT22;23517;50.390;8.616;2023-08-30T11:25:14;22.00;22.50
37678;DHT22;23517;50.390;8.616;2023-08-30T11:27:42;21.60;22.60
37678;DHT22;23517;50.390;8.616;2023-08-30T11:30:10;21.60;22.60
37678;DHT22;23517;50.390;8.616;2023-08-30T11:32:39;21.80;21.50
37678;DHT22;23517;50.390;8.616;2023-08-30T11:35:07;21.70;21.40
37678;DHT22;23517;50.390;8.616;2023-08-30T11:37:34;21.70;22.10
37678;DHT22;23517;50.390;8.616;2023-08-30T11:40:02;21.50;21.70
37678;DHT22;23517;50.390;8.616;2023-08-30T11:42:31;21.40;22.30
37678;DHT22;23517;50.390;8.616;2023-08-30T11:44:58;21.50;22.40
37678;DHT22;23517;50.390;8.616;2023-08-30T11:47:26;21.60;22.70
37678;DHT22;23517;50.390;8.616;2023-08-30T11:49:55;21.80;21.70
37678;DHT22;23517;50.390;8.616;2023-08-30T11:52:25;21.70;22.00
37678;DHT22;23517;50.390;8.616;2023-08-30T11:54:53;21.40;22.10
37678;DHT22;23517;50.390;8.616;2023-08-30T11:57:20;21.40;22.50
37678;DHT22;23517;50.390;8.616;2023-08-30T11:59:47;21.50;21.90
37678;DHT22;23517;50.390;8.616;2023-08-30T12:02:16;21.30;23.00
37678;DHT22;23517;50.390;8.616;2023-08-30T12:04:45;21.20;22.50
37678;DHT22;23517;50.390;8.616;2023-08-30T12:07:24;21.10;22.90
37678;DHT22;23517;50.390;8.616;2023-08-30T12:09:52;21.00;23.20
37678;DHT22;23517;50.390;8.616;2023-08-30T12:12:23;21.10;23.70
37678;DHT22;23517;50.390;8.616;2023-08-30T12:14:57;21.00;24.10
37678;DHT22;23517;50.390;8.616;2023-08-30T12:17:24;20.70;24.20
37678;DHT22;23517;50.390;8.616;2023-08-30T12:19:58;20.70;24.60
37678;DHT22;23517;50.390;8.616;2023-08-30T12:22:40;20.50;25.80
37678;DHT22;23517;50.390;8.616;2023-08-30T12:25:17;20.40;27.50
37678;DHT22;23517;50.390;8.616;2023-08-30T12:27:45;20.20;29.30
37678;DHT22;23517;50.390;8.616;2023-08-30T12:30:15;20.00;30.60
37678;DHT22;23517;50.390;8.616;2023-08-30T12:32:47;19.70;32.30
37678;DHT22;23517;50.390;8.616;2023-08-30T12:35:15;19.50;33.70
37678;DHT22;23517;50.390;8.616;2023-08-30T12:37:42;19.40;33.70
37678;DHT22;23517;50.390;8.616;2023-08-30T12:40:09;19.50;33.00
37678;DHT22;23517;50.390;8.616;2023-08-30T12:42:37;19.50;33.50
37678;DHT22;23517;50.390;8.616;2023-08-30T12:45:04;19.60;32.60
37678;DHT22;23517;50.390;8.616;2023-08-30T12:47:32;19.80;31.70
37678;DHT22;23517;50.390;8.616;2023-08-30T12:49:59;20.00;31.40
37678;DHT22;23517;50.390;8.616;2023-08-30T12:52:26;20.30;31.30
37678;DHT22;23517;50.390;8.616;2023-08-30T12:54:52;20.60;30.60
37678;DHT22;23517;50.390;8.616;2023-08-30T12:57:20;21.00;29.80
37678;DHT22;23517;50.390;8.616;2023-08-30T12:59:47;21.20;29.40
37678;DHT22;23517;50.390;8.616;2023-08-30T13:02:13;21.50;29.10
37678;DHT22;23517;50.390;8.616;2023-08-30T13:04:40;21.40;27.60
37678;DHT22;23517;50.390;8.616;2023-08-30T13:07:09;21.50;27.50
37678;DHT22;23517;50.390;8.616;2023-08-30T13:09:36;21.40;27.60
37678;DHT22;23517;50.390;8.616;2023-08-30T13:12:03;21.40;27.40
37678;DHT22;23517;50.390;8.616;2023-08-30T13:14:30;21.20;26.70
37678;DHT22;23517;50.390;8.616;2023-08-30T13:16:56;21.00;26.90
37678;DHT22;23517;50.390;8.616;2023-08-30T13:19:23;21.20;26.20
37678;DHT22;23517;50.390;8.616;2023-08-30T13:21:50;21.20;25.00
37678;DHT22;23517;50.390;8.616;2023-08-30T13:24:17;21.20;24.80
37678;DHT22;23517;50.390;8.616;2023-08-30T13:26:43;21.30;25.70
37678;DHT22;23517;50.390;8.616;2023-08-30T13:29:11;21.30;25.20
37678;DHT22;23517;50.390;8.616;2023-08-30T13:31:38;21.30;25.80
37678;DHT22;23517;50.390;8.616;2023-08-30T13:34:05;21.30;26.30
37678;DHT22;23517;50.390;8.616;2023-08-30T13:36:31;21.30;26.90
37678;DHT22;23517;50.390;8.616;2023-08-30T13:38:59;21.20;26.90
37678;DHT22;23517;50.390;8.616;2023-08-30T13:41:26;21.10;27.40
37678;DHT22;23517;50.390;8.616;2023-08-30T13:43:53;21.00;27.80
37678;DHT22;23517;50.390;8.616;2023-08-30T13:46:23;20.70;32.10
37678;DHT22;23517;50.390;8.616;2023-08-30T13:48:59;20.30;34.60
37678;DHT22;23517;50.390;8.616;2023-08-30T13:51:26;20.10;35.70
37678;DHT22;23517;50.390;8.616;2023-08-30T13:53:53;19.60;37.20
37678;DHT22;23517;50.390;8.616;2023-08-30T13:56:20;20.00;39.20
37678;DHT22;23517;50.390;8.616;2023-08-30T13:58:48;19.40;41.60
37678;DHT22;23517;50.390;8.616;2023-08-30T14:01:15;19.30;41.90
37678;DHT22;23517;50.390;8.616;2023-08-30T14:03:43;19.30;41.70
37678;DHT22;23517;50.390;8.616;2023-08-30T14:06:10;19.80;42.30
37678;DHT22;23517;50.390;8.616;2023-08-30T14:08:37;19.50;41.90
37678;DHT22;23517;50.390;8.616;2023-08-30T14:11:04;19.50;42.30
37678;DHT22;23517;50.390;8.616;2023-08-30T14:13:31;19.50;42.40
37678;DHT22;23517;50.390;8.616;2023-08-30T14:16:00;19.60;42.40
37678;DHT22;23517;50.390;8.616;2023-08-30T14:18:31;19.70;41.20
37678;DHT22;23517;50.390;8.616;2023-08-30T14:20:59;19.70;40.10
37678;DHT22;23517;50.390;8.616;2023-08-30T14:23:27;19.60;40.30
37678;DHT22;23517;50.390;8.616;2023-08-30T14:25:59;19.90;40.20
37678;DHT22;23517;50.390;8.616;2023-08-30T14:28:30;20.00;39.30
37678;DHT22;23517;50.390;8.616;2023-08-30T14:30:56;20.30;38.70
37678;DHT22;23517;50.390;8.616;2023-08-30T14:33:23;20.40;36.30
37678;DHT22;23517;50.390;8.616;2023-08-30T14:35:50;20.60;36.80
37678;DHT22;23517;50.390;8.616;2023-08-30T14:38:17;20.80;35.20
37678;DHT22;23517;50.390;8.616;2023-08-30T14:40:56;20.70;35.20
37678;DHT22;23517;50.390;8.616;2023-08-30T14:43:24;20.80;35.20
37678;DHT22;23517;50.390;8.616;2023-08-30T14:45:51;20.80;33.90
37678;DHT22;23517;50.390;8.616;2023-08-30T14:48:35;20.80;34.20
37678;DHT22;23517;50.390;8.616;2023-08-30T14:51:04;20.90;34.30
37678;DHT22;23517;50.390;8.616;2023-08-30T14:53:31;21.10;33.60
37678;DHT22;23517;50.390;8.616;2023-08-30T14:55:58;21.20;31.80
37678;DHT22;23517;50.390;8.616;2023-08-30T14:58:25;21.10;31.30
37678;DHT22;23517;50.390;8.616;2023-08-30T15:00:52;20.90;32.30
37678;DHT22;23517;50.390;8.616;2023-08-30T15:03:19;20.90;32.70
37678;DHT22;23517;50.390;8.616;2023-08-30T15:05:52;20.80;32.90
37678;DHT22;23517;50.390;8.616;2023-08-30T15:08:23;20.80;32.10
37678;DHT22;23517;50.390;8.616;2023-08-30T15:10:51;20.70;31.70
37678;DHT22;23517;50.390;8.616;2023-08-30T15:13:20;20.80;31.10
37678;DHT22;23517;50.390;8.616;2023-08-30T15:15:47;20.80;30.40
37678;DHT22;23517;50.390;8.616;2023-08-30T15:18:14;21.30;30.30
37678;DHT22;23517;50.390;8.616;2023-08-30T15:20:41;20.90;28.70
37678;DHT22;23517;50.390;8.616;2023-08-30T15:23:12;21.10;28.10
37678;DHT22;23517;50.390;8.616;2023-08-30T15:25:47;20.90;28.20
37678;DHT22;23517;50.390;8.616;2023-08-30T15:28:15;20.90;28.40
37678;DHT22;23517;50.390;8.616;2023-08-30T15:30:45;21.20;27.90
37678;DHT22;23517;50.390;8.616;2023-08-30T15:33:13;20.90;12.00
37678;DHT22;23517;50.390;8.616;2023-08-30T15:36:00;21.20;27.90
37678;DHT22;23517;50.390;8.616;2023-08-30T15:38:27;20.50;28.70
37678;DHT22;23517;50.390;8.616;2023-08-30T15:40:54;20.50;28.70
37678;DHT22;23517;50.390;8.616;2023-08-30T15:43:22;20.50;28.50
37678;DHT22;23517;50.390;8.616;2023-08-30T15:45:49;20.20;28.30
37678;DHT22;23517;50.390;8.616;2023-08-30T15:48:16;20.00;28.50